createdAt,value
2023-05-08T00:03:44.642Z,7.09
2023-05-08T00:08:48.977Z,7.57
2023-05-08T00:13:53.206Z,7.83
2023-05-08T00:18:57.525Z,7.89
2023-05-08T00:24:01.332Z,8.10
2023-05-08T00:29:06.733Z,8.27
2023-05-08T00:34:10.986Z,8.55
2023-05-08T00:39:15.150Z,8.85
2023-05-08T00:44:19.130Z,9.10
2023-05-08T00:49:23.814Z,9.14
2023-05-08T00:54:28.677Z,9.24
2023-05-08T00:59:32.892Z,9.58
2023-05-08T01:04:38.508Z,10.01
2023-05-08T01:09:42.448Z,10.23
2023-05-08T01:15:13.644Z,10.52
2023-05-08T01:20:54.321Z,10.82
2023-05-08T01:26:17.034Z,11.09
2023-05-08T01:31:45.457Z,11.43
2023-05-08T01:37:00.509Z,11.82
2023-05-08T01:42:11.427Z,12.20
2023-05-08T01:47:18.879Z,12.54
2023-05-08T01:52:35.789Z,12.95
2023-05-08T01:57:47.877Z,13.44
2023-05-08T02:02:53.223Z,13.94
2023-05-08T02:07:58.256Z,14.43
2023-05-08T02:13:03.377Z,14.94
2023-05-08T02:18:10.743Z,15.47
2023-05-08T02:23:20.541Z,16.02
2023-05-08T02:28:25.662Z,16.52
2023-05-08T02:33:31.142Z,17.12
2023-05-08T02:38:38.499Z,17.62
2023-05-08T02:43:43.378Z,18.12
2023-05-08T02:49:06.014Z,18.53
2023-05-08T02:54:25.409Z,18.99
2023-05-08T02:59:45.236Z,19.36
2023-05-08T03:05:04.126Z,19.71
2023-05-08T03:10:14.296Z,19.97
2023-05-08T03:15:44.317Z,20.20
2023-05-08T03:20:53.649Z,20.51
2023-05-08T03:26:53.726Z,20.76
2023-05-08T03:32:02.808Z,20.82
2023-05-08T03:37:07.182Z,21.04
2023-05-08T03:42:17.713Z,21.30
2023-05-08T03:47:22.920Z,21.51
2023-05-08T03:52:27.415Z,21.56
2023-05-08T03:58:04.125Z,21.77
2023-05-08T04:03:29.478Z,22.00
2023-05-08T04:08:44.092Z,22.16
2023-05-08T04:13:55.326Z,22.39
2023-05-08T04:19:05.074Z,22.52
2023-05-08T04:24:11.453Z,22.66
2023-05-08T04:29:15.757Z,22.82
2023-05-08T04:34:20.418Z,23.06
2023-05-08T04:39:24.636Z,23.17
2023-05-08T04:44:29.233Z,23.41
2023-05-08T04:49:33.388Z,23.74
2023-05-08T04:54:37.736Z,24.01
2023-05-08T04:59:41.738Z,24.34
2023-05-08T05:04:46.179Z,24.47
2023-05-08T05:09:51.002Z,24.63
2023-05-08T05:14:55.121Z,24.80
2023-05-08T05:20:00.780Z,24.86
2023-05-08T05:25:07.720Z,25.08
2023-05-08T05:30:13.162Z,25.30
2023-05-08T05:35:17.845Z,25.41
2023-05-08T05:40:22.040Z,25.59
2023-05-08T05:45:26.449Z,25.69
2023-05-08T05:50:30.507Z,25.80
2023-05-08T05:55:36.291Z,25.98
2023-05-08T06:00:40.628Z,26.01
2023-05-08T06:05:47.814Z,26.10
2023-05-08T06:10:51.673Z,26.16
2023-05-08T06:15:59.511Z,26.27
2023-05-08T06:21:03.609Z,26.42
2023-05-08T06:26:07.713Z,26.51
2023-05-08T06:31:11.866Z,26.61
2023-05-08T06:36:16.204Z,26.66
2023-05-08T06:41:20.454Z,26.73
2023-05-08T06:46:24.505Z,26.85
2023-05-08T06:51:28.584Z,27.01
2023-05-08T06:56:32.644Z,27.33
2023-05-08T07:01:38.212Z,27.63
2023-05-08T07:06:42.212Z,27.51
2023-05-08T07:11:46.404Z,27.39
2023-05-08T07:16:50.396Z,27.42
2023-05-08T07:21:54.175Z,27.77
2023-05-08T07:27:00.556Z,27.77
2023-05-08T07:32:09.126Z,27.41
2023-05-08T07:37:13.476Z,27.68
2023-05-08T07:42:19.194Z,27.80
2023-05-08T07:47:23.348Z,27.86
2023-05-08T07:52:27.369Z,27.84
2023-05-08T07:57:40.575Z,27.90
2023-05-08T08:02:46.097Z,28.02
2023-05-08T08:07:50.178Z,28.13
2023-05-08T08:12:54.060Z,28.16
2023-05-08T08:17:58.373Z,28.23
2023-05-08T08:23:02.312Z,28.20
2023-05-08T08:28:06.415Z,28.06
2023-05-08T08:33:10.531Z,27.75
2023-05-08T08:38:14.559Z,27.58
2023-05-08T08:43:19.003Z,27.44
2023-05-08T08:48:29.381Z,27.30
2023-05-08T08:53:38.710Z,27.24
2023-05-08T08:58:57.819Z,27.28
2023-05-08T09:04:02.269Z,27.28
2023-05-08T09:09:07.039Z,27.10
2023-05-08T09:14:10.897Z,27.10
2023-05-08T09:19:17.294Z,27.16
2023-05-08T09:24:21.482Z,27.32
2023-05-08T09:29:25.608Z,27.44
2023-05-08T09:34:34.089Z,27.37
2023-05-08T09:39:42.275Z,27.24
2023-05-08T09:44:54.542Z,26.99
2023-05-08T09:50:09.648Z,26.98
2023-05-08T09:55:13.798Z,26.83
2023-05-08T10:00:18.193Z,26.81
2023-05-08T10:05:33.792Z,26.85
2023-05-08T10:10:39.271Z,26.80
2023-05-08T10:15:44.657Z,26.96
2023-05-08T10:20:50.739Z,26.96
2023-05-08T10:26:01.811Z,26.76
2023-05-08T10:31:09.169Z,26.55
2023-05-08T10:36:15.358Z,26.91
2023-05-08T10:41:23.019Z,27.03
2023-05-08T10:46:49.876Z,26.63
2023-05-08T10:52:10.334Z,26.38
2023-05-08T10:57:14.170Z,26.12
2023-05-08T11:02:29.621Z,26.12
2023-05-08T11:07:56.642Z,26.16
2023-05-08T11:13:02.131Z,25.97
2023-05-08T11:18:18.578Z,25.96
2023-05-08T11:23:27.775Z,25.90
2023-05-08T11:28:39.365Z,25.62
2023-05-08T11:33:43.293Z,25.68
2023-05-08T11:39:09.444Z,25.62
2023-05-08T11:44:32.784Z,25.65
2023-05-08T11:49:37.636Z,25.64
2023-05-08T11:54:41.533Z,25.53
2023-05-08T11:59:45.741Z,25.40
2023-05-08T12:04:49.955Z,25.45
2023-05-08T12:09:54.725Z,25.32
2023-05-08T12:14:58.798Z,25.08
2023-05-08T12:20:18.297Z,24.92
2023-05-08T12:25:22.633Z,24.83
2023-05-08T12:30:26.981Z,24.75
2023-05-08T12:35:31.789Z,24.65
2023-05-08T12:40:43.704Z,24.66
2023-05-08T12:45:48.067Z,24.85
2023-05-08T12:50:51.915Z,25.02
2023-05-08T12:55:59.034Z,24.49
2023-05-08T13:01:07.111Z,24.40
2023-05-08T13:06:23.643Z,23.97
2023-05-08T13:11:33.861Z,23.55
2023-05-08T13:16:48.567Z,23.22
2023-05-08T13:21:53.665Z,22.84
2023-05-08T13:26:57.682Z,22.50
2023-05-08T13:32:01.671Z,22.19
2023-05-08T13:37:05.794Z,21.89
2023-05-08T13:42:10.594Z,21.55
2023-05-08T13:47:14.652Z,21.20
2023-05-08T13:52:18.710Z,20.84
2023-05-08T13:57:23.412Z,20.53
2023-05-08T14:02:27.930Z,20.15
2023-05-08T14:07:32.128Z,19.84
2023-05-08T14:12:36.924Z,19.51
2023-05-08T14:17:41.066Z,19.20
2023-05-08T14:22:46.205Z,18.87
2023-05-08T14:27:51.937Z,18.56
2023-05-08T14:32:55.855Z,18.26
2023-05-08T14:38:00.033Z,17.95
2023-05-08T14:43:04.071Z,17.64
2023-05-08T14:48:08.278Z,17.37
2023-05-08T14:53:12.194Z,16.46
2023-05-08T14:58:16.379Z,16.88
2023-05-08T15:03:20.546Z,16.64
2023-05-08T15:08:24.612Z,16.56
2023-05-08T15:13:28.650Z,16.46
2023-05-08T15:18:32.544Z,16.27
2023-05-08T15:23:37.201Z,15.98
2023-05-08T15:28:42.054Z,15.67
2023-05-08T15:33:46.114Z,15.48
2023-05-08T15:38:50.173Z,15.35
2023-05-08T15:43:55.953Z,14.98
2023-05-08T15:49:01.988Z,14.85
2023-05-08T15:54:06.846Z,14.81
2023-05-08T15:59:10.833Z,14.62
2023-05-08T16:04:14.806Z,14.45
2023-05-08T16:09:18.801Z,14.34
2023-05-08T16:14:22.638Z,14.24
2023-05-08T16:19:26.639Z,14.06
2023-05-08T16:24:32.304Z,13.84
2023-05-08T16:29:36.211Z,13.79
2023-05-08T16:34:40.367Z,13.74
2023-05-08T16:39:44.201Z,13.70
2023-05-08T16:44:48.580Z,13.62
2023-05-08T16:49:52.608Z,13.26
2023-05-08T16:54:56.598Z,13.75
2023-05-08T17:00:00.597Z,13.73
2023-05-08T17:05:04.674Z,13.43
2023-05-08T17:10:09.888Z,13.27
2023-05-08T17:15:13.928Z,13.24
2023-05-08T17:20:18.177Z,13.29
2023-05-08T17:25:23.356Z,13.40
2023-05-08T17:30:28.597Z,13.60
2023-05-08T17:35:32.476Z,13.65
2023-05-08T17:40:37.657Z,13.40
2023-05-08T17:45:41.730Z,13.39
2023-05-08T17:50:47.492Z,13.15
2023-05-08T17:55:51.487Z,13.19
2023-05-08T18:00:56.769Z,13.30
2023-05-08T18:06:00.872Z,13.24
2023-05-08T18:11:04.672Z,13.07
2023-05-08T18:16:08.681Z,12.91
2023-05-08T18:21:12.497Z,12.85
2023-05-08T18:26:17.227Z,12.78
2023-05-08T18:31:21.644Z,12.71
2023-05-08T18:36:25.607Z,12.72
2023-05-08T18:41:29.644Z,12.72
2023-05-08T18:46:33.549Z,12.47
2023-05-08T18:51:37.661Z,12.17
2023-05-08T18:56:41.683Z,11.98
2023-05-08T19:01:45.671Z,11.77
2023-05-08T19:06:49.717Z,11.70
2023-05-08T19:11:53.533Z,11.60
2023-05-08T19:16:58.479Z,11.27
2023-05-08T19:22:02.622Z,11.01
2023-05-08T19:27:07.409Z,10.95
2023-05-08T19:32:11.495Z,10.92
2023-05-08T19:37:15.270Z,10.79
2023-05-08T19:42:19.200Z,10.59
2023-05-08T19:47:23.073Z,10.63
2023-05-08T19:52:27.518Z,10.54
2023-05-08T19:57:31.457Z,10.34
2023-05-08T20:02:35.339Z,10.37
2023-05-08T20:07:39.307Z,10.15
2023-05-08T20:12:43.237Z,10.42
2023-05-08T20:17:47.374Z,10.36
2023-05-08T20:22:51.339Z,9.93
2023-05-08T20:27:55.285Z,9.93
2023-05-08T20:33:05.514Z,9.81
2023-05-08T20:38:09.897Z,9.70
2023-05-08T20:43:13.805Z,9.75
2023-05-08T20:48:17.833Z,9.86
2023-05-08T20:53:22.107Z,9.89
2023-05-08T20:58:25.979Z,9.89
2023-05-08T21:03:30.008Z,9.60
2023-05-08T21:08:33.804Z,9.77
2023-05-08T21:13:37.668Z,9.74
2023-05-08T21:18:41.658Z,9.54
2023-05-08T21:23:45.483Z,9.64
2023-05-08T21:28:49.559Z,9.29
2023-05-08T21:33:53.703Z,9.09
2023-05-08T21:38:57.848Z,9.13
2023-05-08T21:44:01.994Z,8.99
2023-05-08T21:49:06.068Z,8.84
2023-05-08T21:54:10.440Z,8.89
2023-05-08T21:59:14.214Z,8.98
2023-05-08T22:04:18.202Z,9.10
2023-05-08T22:09:22.355Z,9.08
2023-05-08T22:14:26.405Z,9.11
2023-05-08T22:19:30.406Z,9.12
2023-05-08T22:24:34.180Z,9.30
2023-05-08T22:29:38.202Z,9.06
2023-05-08T22:34:42.537Z,9.44
2023-05-08T22:39:46.278Z,9.42
2023-05-08T22:44:50.258Z,9.52
2023-05-08T22:49:54.995Z,9.50
2023-05-08T22:54:59.209Z,9.40
2023-05-08T23:00:03.229Z,9.46
2023-05-08T23:05:10.290Z,9.63
2023-05-08T23:10:14.885Z,9.75
2023-05-08T23:15:19.186Z,9.99
2023-05-08T23:20:23.092Z,10.25
2023-05-08T23:25:27.162Z,10.53
2023-05-08T23:30:31.387Z,10.46
2023-05-08T23:35:35.306Z,11.04
2023-05-08T23:41:19.454Z,11.32
2023-05-08T23:46:23.334Z,11.47
2023-05-08T23:51:27.429Z,11.69
2023-05-08T23:56:31.650Z,11.94
